Time;durP1;ratioP1;P1;durP2;ratioP2;P2;SDS_P1;SDS_P2;PMS_P1;PMS_P2;Temp;Humidity;BMP_temperature;BMP_pressure;BME280_temperature;BME280_humidity;BME280_pressure;Samples;Min_cycle;Max_cycle;Signal;HPM_P1;HPM_P2
2021/09/11 00:01:04;;;;;;;;;;;;;;;;;;5002326;28;19933;-79
2021/09/11 00:03:32;;;;;;;;;;;;;;;;;;5002135;28;19933;-78
2021/09/11 00:05:59;;;;;;;;;;;;;;;;;;5001235;28;20016;-78
2021/09/11 00:08:25;;;;;;;;;;;;;;;;;;4999331;28;19931;-79
2021/09/11 00:10:53;;;;;;;;;;;;;;;;;;4999975;28;20304;-80
2021/09/11 00:13:20;;;;;;;;;;;;;;;;;;4992231;28;19948;-79
2021/09/11 00:15:48;;;;;;;;;;;;;;;;;;4998878;28;19926;-81
2021/09/11 00:18:16;;;;;;;;;;;;;;;;;;4996232;28;19936;-81
2021/09/11 00:20:43;;;;;;;;;;;;;;;;;;4995263;28;19930;-80
2021/09/11 00:23:10;;;;;;;;;;;;;;;;;;4994740;28;19933;-81
2021/09/11 00:25:37;;;;;;;;;;;;;;;;;;5002366;28;20369;-80
2021/09/11 00:28:04;;;;;;;;;;;;;;;;;;5001427;28;20029;-80
2021/09/11 00:30:31;;;;;;;;;;;;;;;;;;5002116;28;19926;-78
2021/09/11 00:32:57;;;;;;;;;;;;;;;;;;4992915;28;20212;-80
2021/09/11 00:35:24;;;;;;;;;;;;;;;;;;4999259;28;19930;-79
2021/09/11 00:37:51;;;;;;;;;;;;;;;;;;4993220;28;19948;-80
2021/09/11 00:40:18;;;;;;;;;;;;;;;;;;4996412;28;19963;-80
2021/09/11 00:42:48;;;;;;;;;;;;;;;;;;4997746;28;20262;-79
2021/09/11 00:45:15;;;;;;;;;;;;;;;;;;4993423;28;19977;-80
2021/09/11 00:47:42;;;;;;;;;;;;;;;;;;4991656;28;19933;-80
2021/09/11 00:50:08;;;;;;;;;;;;;;;;;;4995818;28;19932;-79
2021/09/11 00:52:35;;;;;;;;;;;;;;;;;;4994078;28;19948;-78
2021/09/11 00:55:02;;;;;;;;;;;;;;;;;;4997799;28;20025;-81
2021/09/11 00:57:29;;;;;;;;;;;;;;;;;;4992234;28;20032;-81
2021/09/11 00:59:56;;;;;;;;;;;;;;;;;;4997956;28;19926;-80
2021/09/11 01:02:23;;;;;;;;;;;;;;;;;;4991920;28;19925;-81
2021/09/11 01:04:50;;;;;;;;;;;;;;;;;;4999528;28;19925;-81
2021/09/11 01:07:17;;;;;;;;;;;;;;;;;;4996193;28;19932;-80
2021/09/11 01:09:44;;;;;;;;;;;;;;;;;;4995867;28;19940;-80
2021/09/11 01:12:11;;;;;;;;;;;;;;;;;;4992701;28;19926;-80
2021/09/11 01:14:38;;;;;;;;;;;;;;;;;;4998724;28;19937;-80
2021/09/11 01:17:05;;;;;;;;;;;;;;;;;;4992437;28;20020;-80
2021/09/11 01:19:32;;;;;;;;;;;;;;;;;;4991659;28;19926;-82
2021/09/11 01:21:59;;;;;;;;;;;;;;;;;;5002705;28;19932;-81
2021/09/11 01:24:26;;;;;;;;;;;;;;;;;;4992265;28;19926;-80
2021/09/11 01:26:53;;;;;;;;;;;;;;;;;;4995976;28;19965;-81
2021/09/11 01:29:20;;;;;;;;;;;;;;;;;;5000442;28;19925;-80
2021/09/11 01:31:47;;;;;;;;;;;;;;;;;;4997181;28;19948;-80
2021/09/11 01:34:13;;;;;;;;;;;;;;;;;;4994730;28;19932;-81
2021/09/11 01:36:40;;;;;;;;;;;;;;;;;;5000752;28;19925;-80
2021/09/11 01:39:07;;;;;;;;;;;;;;;;;;4994775;28;19926;-81
2021/09/11 01:41:34;;;;;;;;;;;;;;;;;;4993866;28;21483;-79
2021/09/11 01:44:02;;;;;;;;;;;;;;;;;;4994758;28;20190;-80
2021/09/11 01:46:29;;;;;;;;;;;;;;;;;;4998216;28;19977;-81
2021/09/11 01:48:56;;;;;;;;;;;;;;;;;;4996835;28;20032;-80
2021/09/11 01:51:23;;;;;;;;;;;;;;;;;;4998687;28;19926;-80
2021/09/11 01:53:49;;;;;;;;;;;;;;;;;;4993338;28;19925;-80
2021/09/11 01:56:16;;;;;;;;;;;;;;;;;;4991651;28;20301;-80
2021/09/11 01:58:43;;;;;;;;;;;;;;;;;;4995036;28;20449;-82
2021/09/11 02:01:10;;;;;;;;;;;;;;;;;;4991008;28;19933;-81
2021/09/11 02:03:37;;;;;;;;;;;;;;;;;;4993708;28;19926;-79
2021/09/11 02:06:04;;;;;;;;;;;;;;;;;;4996825;28;19926;-81
2021/09/11 02:08:31;;;;;;;;;;;;;;;;;;4995026;28;19932;-81
2021/09/11 02:10:58;;;;;;;;;;;;;;;;;;4995062;28;19932;-81
2021/09/11 02:13:25;;;;;;;;;;;;;;;;;;5005438;28;19950;-80
2021/09/11 02:15:54;;;;;;;;;;;;;;;;;;5000193;28;19932;-80
2021/09/11 02:18:21;;;;;;;;;;;;;;;;;;4989909;28;19929;-80
2021/09/11 02:20:56;;;;;;;;;;;;;;;;;;4995941;28;19925;-79
2021/09/11 02:23:24;;;;;;;;;;;;;;;;;;4997406;28;20024;-79
2021/09/11 02:25:51;;;;;;;;;;;;;;;;;;4992444;28;19929;-80
2021/09/11 02:28:18;;;;;;;;;;;;;;;;;;4991941;28;20389;-81
2021/09/11 02:30:45;;;;;;;;;;;;;;;;;;4992793;28;20359;-80
2021/09/11 02:33:12;;;;;;;;;;;;;;;;;;4993754;28;19925;-80
2021/09/11 02:35:39;;;;;;;;;;;;;;;;;;5000025;28;19932;-79
2021/09/11 02:38:06;;;;;;;;;;;;;;;;;;4995082;28;19942;-80
2021/09/11 02:40:33;;;;;;;;;;;;;;;;;;4994083;28;19936;-80
2021/09/11 02:43:00;;;;;;;;;;;;;;;;;;5004447;28;20024;-82
2021/09/11 02:45:27;;;;;;;;;;;;;;;;;;4997515;28;20288;-81
2021/09/11 02:47:54;;;;;;;;;;;;;;;;;;4997038;28;20008;-83
2021/09/11 02:50:21;;;;;;;;;;;;;;;;;;4994483;28;19926;-81
2021/09/11 02:52:48;;;;;;;;;;;;;;;;;;4996668;28;20292;-81
2021/09/11 02:55:15;;;;;;;;;;;;;;;;;;4999438;28;20296;-81
2021/09/11 02:57:42;;;;;;;;;;;;;;;;;;4993482;28;20265;-81
2021/09/11 03:00:09;;;;;;;;;;;;;;;;;;5001279;28;19933;-80
2021/09/11 03:02:36;;;;;;;;;;;;;;;;;;4993317;28;19926;-80
2021/09/11 03:05:03;;;;;;;;;;;;;;;;;;4996050;28;19961;-79
2021/09/11 03:07:30;;;;;;;;;;;;;;;;;;4995823;28;19932;-80
2021/09/11 03:09:57;;;;;;;;;;;;;;;;;;4997324;28;19963;-81
2021/09/11 03:12:24;;;;;;;;;;;;;;;;;;5005308;28;20023;-80
2021/09/11 03:14:51;;;;;;;;;;;;;;;;;;4994412;28;20020;-79
2021/09/11 03:17:18;;;;;;;;;;;;;;;;;;4999379;28;19925;-80
2021/09/11 03:19:45;;;;;;;;;;;;;;;;;;5000523;28;20021;-80
2021/09/11 03:22:12;;;;;;;;;;;;;;;;;;5007443;28;19929;-78
2021/09/11 03:24:39;;;;;;;;;;;;;;;;;;4996904;28;19926;-80
2021/09/11 03:27:06;;;;;;;;;;;;;;;;;;4994078;28;19932;-80
2021/09/11 03:29:33;;;;;;;;;;;;;;;;;;5004424;28;19926;-79
2021/09/11 03:32:00;;;;;;;;;;;;;;;;;;4999661;28;19961;-80
2021/09/11 03:34:27;;;;;;;;;;;;;;;;;;4999711;28;19930;-80
2021/09/11 03:36:54;;;;;;;;;;;;;;;;;;4993906;28;19930;-78
2021/09/11 03:39:21;;;;;;;;;;;;;;;;;;4998379;28;19945;-79
2021/09/11 03:41:48;;;;;;;;;;;;;;;;;;4997475;28;19926;-79
2021/09/11 03:44:14;;;;;;;;;;;;;;;;;;4994722;28;20013;-79
2021/09/11 03:46:41;;;;;;;;;;;;;;;;;;4997132;28;19926;-79
2021/09/11 03:49:08;;;;;;;;;;;;;;;;;;4998427;28;19932;-80
2021/09/11 03:51:36;;;;;;;;;;;;;;;;;;4997819;28;19926;-78
2021/09/11 03:54:03;;;;;;;;;;;;;;;;;;4992251;28;19926;-79
2021/09/11 03:56:30;;;;;;;;;;;;;;;;;;5000650;28;19926;-79
2021/09/11 03:58:57;;;;;;;;;;;;;;;;;;4994444;28;19969;-80
2021/09/11 04:01:24;;;;;;;;;;;;;;;;;;5003164;28;20021;-80
2021/09/11 04:03:51;;;;;;;;;;;;;;;;;;5007680;28;20300;-80
2021/09/11 04:06:18;;;;;;;;;;;;;;;;;;4996137;28;20327;-79
2021/09/11 04:08:45;;;;;;;;;;;;;;;;;;5000087;28;20040;-79
2021/09/11 04:11:12;;;;;;;;;;;;;;;;;;4999232;28;19925;-80
2021/09/11 04:13:39;;;;;;;;;;;;;;;;;;5000572;28;19964;-79
2021/09/11 04:16:06;;;;;;;;;;;;;;;;;;4998067;28;19925;-78
2021/09/11 04:18:33;;;;;;;;;;;;;;;;;;4992122;28;19944;-81
2021/09/11 04:21:00;;;;;;;;;;;;;;;;;;4996442;28;20411;-80
2021/09/11 04:23:27;;;;;;;;;;;;;;;;;;4992576;28;20431;-80
2021/09/11 04:25:54;;;;;;;;;;;;;;;;;;4994642;28;19929;-81
2021/09/11 04:28:21;;;;;;;;;;;;;;;;;;5002121;28;19926;-79
2021/09/11 04:30:48;;;;;;;;;;;;;;;;;;4994108;28;19932;-80
2021/09/11 04:33:15;;;;;;;;;;;;;;;;;;4997078;28;19940;-82
2021/09/11 04:35:41;;;;;;;;;;;;;;;;;;5003528;28;19944;-80
2021/09/11 04:38:08;;;;;;;;;;;;;;;;;;5007776;28;19926;-81
2021/09/11 04:40:35;;;;;;;;;;;;;;;;;;5003954;28;19948;-79
2021/09/11 04:43:03;;;;;;;;;;;;;;;;;;5002614;28;20296;-79
2021/09/11 04:45:30;;;;;;;;;;;;;;;;;;5000347;28;19925;-79
2021/09/11 04:47:57;;;;;;;;;;;;;;;;;;4993528;28;19933;-79
2021/09/11 04:50:24;;;;;;;;;;;;;;;;;;4996863;28;19980;-81
2021/09/11 04:52:51;;;;;;;;;;;;;;;;;;4994345;28;19932;-81
2021/09/11 04:55:18;;;;;;;;;;;;;;;;;;5001266;28;19926;-80
2021/09/11 04:57:45;;;;;;;;;;;;;;;;;;5002052;28;20016;-82
2021/09/11 05:00:12;;;;;;;;;;;;;;;;;;4997993;28;19926;-81
2021/09/11 05:02:39;;;;;;;;;;;;;;;;;;4996698;28;19932;-79
2021/09/11 05:05:06;;;;;;;;;;;;;;;;;;4999252;28;19940;-81
2021/09/11 05:07:33;;;;;;;;;;;;;;;;;;4995943;28;20012;-80
2021/09/11 05:10:00;;;;;;;;;;;;;;;;;;4998985;28;19932;-81
2021/09/11 05:12:27;;;;;;;;;;;;;;;;;;4995866;28;19925;-83
2021/09/11 05:14:54;;;;;;;;;;;;;;;;;;5002621;28;20388;-82
2021/09/11 05:17:21;;;;;;;;;;;;;;;;;;4994316;28;19933;-81
2021/09/11 05:19:48;;;;;;;;;;;;;;;;;;4992832;28;19925;-83
2021/09/11 05:22:15;;;;;;;;;;;;;;;;;;4994016;28;20044;-83
2021/09/11 05:24:42;;;;;;;;;;;;;;;;;;4997095;28;19930;-82
2021/09/11 05:27:09;;;;;;;;;;;;;;;;;;5002460;28;19960;-82
2021/09/11 05:29:36;;;;;;;;;;;;;;;;;;4993254;28;19932;-77
2021/09/11 05:32:03;;;;;;;;;;;;;;;;;;4991684;28;20358;-79
2021/09/11 05:34:30;;;;;;;;;;;;;;;;;;4994683;28;19987;-80
2021/09/11 05:36:57;;;;;;;;;;;;;;;;;;5009713;28;19932;-79
2021/09/11 05:39:24;;;;;;;;;;;;;;;;;;5002055;28;19932;-78
2021/09/11 05:41:51;;;;;;;;;;;;;;;;;;4998421;28;19926;-79
2021/09/11 05:44:18;;;;;;;;;;;;;;;;;;4990898;28;20515;-80
2021/09/11 05:46:45;;;;;;;;;;;;;;;;;;4998940;28;19925;-74
2021/09/11 05:49:12;;;;;;;;;;;;;;;;;;5000260;28;19925;-72
2021/09/11 05:51:39;;;;;;;;;;;;;;;;;;4997596;28;19926;-74
2021/09/11 05:54:06;;;;;;;;;;;;;;;;;;5001333;28;19955;-75
2021/09/11 05:56:33;;;;;;;;;;;;;;;;;;5006021;28;19926;-77
2021/09/11 05:59:00;;;;;;;;;;;;;;;;;;5000453;28;19975;-76
2021/09/11 06:01:27;;;;;;;;;;;;;;;;;;4998671;28;19925;-76
2021/09/11 06:03:54;;;;;;;;;;;;;;;;;;5005908;28;20028;-76
2021/09/11 06:06:21;;;;;;;;;;;;;;;;;;5002482;28;20264;-76
2021/09/11 06:08:48;;;;;;;;;;;;;;;;;;4998005;28;20344;-75
2021/09/11 06:11:15;;;;;;;;;;;;;;;;;;4992505;28;19942;-76
2021/09/11 06:13:41;;;;;;;;;;;;;;;;;;5003926;28;20328;-76
2021/09/11 06:16:08;;;;;;;;;;;;;;;;;;4991838;28;19945;-76
2021/09/11 06:18:35;;;;;;;;;;;;;;;;;;5004106;28;20321;-76
2021/09/11 06:21:02;;;;;;;;;;;;;;;;;;5003492;28;19926;-76
2021/09/11 06:23:29;;;;;;;;;;;;;;;;;;4999084;28;19936;-76
2021/09/11 06:25:56;;;;;;;;;;;;;;;;;;4994576;28;19933;-76
2021/09/11 06:28:24;;;;;;;;;;;;;;;;;;4996205;28;20472;-76
2021/09/11 06:30:51;;;;;;;;;;;;;;;;;;4999154;28;19926;-78
2021/09/11 06:33:18;;;;;;;;;;;;;;;;;;4995870;28;20380;-78
2021/09/11 06:35:45;;;;;;;;;;;;;;;;;;5001071;28;19934;-79
2021/09/11 06:38:12;;;;;;;;;;;;;;;;;;4997946;28;20380;-78
2021/09/11 06:40:39;;;;;;;;;;;;;;;;;;5000874;28;19925;-78
2021/09/11 06:43:06;;;;;;;;;;;;;;;;;;5000874;28;19926;-78
2021/09/11 06:45:33;;;;;;;;;;;;;;;;;;4994460;28;20019;-79
2021/09/11 06:48:00;;;;;;;;;;;;;;;;;;4998892;28;20309;-78
2021/09/11 06:50:27;;;;;;;;;;;;;;;;;;4993632;28;19926;-79
2021/09/11 06:52:54;;;;;;;;;;;;;;;;;;4999752;28;19948;-77
2021/09/11 06:55:21;;;;;;;;;;;;;;;;;;5001940;28;20380;-77
2021/09/11 06:57:48;;;;;;;;;;;;;;;;;;5001035;28;19969;-78
2021/09/11 07:00:14;;;;;;;;;;;;;;;;;;5000949;28;20004;-78
2021/09/11 07:02:41;;;;;;;;;;;;;;;;;;5003223;28;20086;-78
2021/09/11 07:05:08;;;;;;;;;;;;;;;;;;4996773;28;19932;-77
2021/09/11 07:07:35;;;;;;;;;;;;;;;;;;4996495;28;20016;-78
2021/09/11 07:10:02;;;;;;;;;;;;;;;;;;5001822;28;19926;-78
2021/09/11 07:12:29;;;;;;;;;;;;;;;;;;4997274;28;20304;-79
2021/09/11 07:14:57;;;;;;;;;;;;;;;;;;5006477;28;20365;-78
2021/09/11 07:17:24;;;;;;;;;;;;;;;;;;4996471;28;19930;-80
2021/09/11 07:19:51;;;;;;;;;;;;;;;;;;5001692;28;20621;-79
2021/09/11 07:22:18;;;;;;;;;;;;;;;;;;5001973;28;19932;-78
2021/09/11 07:24:45;;;;;;;;;;;;;;;;;;4997880;28;20090;-79
2021/09/11 07:27:12;;;;;;;;;;;;;;;;;;4994473;28;20326;-79
2021/09/11 07:29:39;;;;;;;;;;;;;;;;;;4998208;28;20307;-79
2021/09/11 07:32:06;;;;;;;;;;;;;;;;;;5003638;28;19972;-79
2021/09/11 07:34:33;;;;;;;;;;;;;;;;;;4996193;28;19955;-79
2021/09/11 07:37:00;;;;;;;;;;;;;;;;;;5001348;28;19947;-80
2021/09/11 07:39:27;;;;;;;;;;;;;;;;;;5004928;28;19930;-79
2021/09/11 07:41:54;;;;;;;;;;;;;;;;;;5001720;28;20397;-78
2021/09/11 07:44:21;;;;;;;;;;;;;;;;;;5001905;28;20323;-79
2021/09/11 07:46:48;;;;;;;;;;;;;;;;;;5003653;28;20407;-79
2021/09/11 07:49:15;;;;;;;;;;;;;;;;;;5003733;28;19931;-79
2021/09/11 07:51:41;;;;;;;;;;;;;;;;;;5003954;28;19926;-79
2021/09/11 07:54:08;;;;;;;;;;;;;;;;;;5003732;28;20297;-79
2021/09/11 07:56:35;;;;;;;;;;;;;;;;;;5002649;28;20435;-78
2021/09/11 07:59:02;;;;;;;;;;;;;;;;;;4998712;28;19933;-78
2021/09/11 08:01:29;;;;;;;;;;;;;;;;;;5007739;28;19940;-78
2021/09/11 08:03:56;;;;;;;;;;;;;;;;;;4999586;28;19933;-79
2021/09/11 08:06:23;;;;;;;;;;;;;;;;;;5000184;28;20368;-79
2021/09/11 08:08:50;;;;;;;;;;;;;;;;;;4998027;28;20292;-79
2021/09/11 08:11:17;;;;;;;;;;;;;;;;;;4997533;28;20593;-79
2021/09/11 08:13:44;;;;;;;;;;;;;;;;;;4993569;28;19931;-79
2021/09/11 08:16:11;;;;;;;;;;;;;;;;;;5002369;28;19940;-79
2021/09/11 08:18:38;;;;;;;;;;;;;;;;;;4995095;28;19925;-78
2021/09/11 08:21:05;;;;;;;;;;;;;;;;;;4995882;28;19929;-79
2021/09/11 08:23:32;;;;;;;;;;;;;;;;;;4985741;28;20032;-79
2021/09/11 08:25:59;;;;;;;;;;;;;;;;;;4976169;28;19936;-79
2021/09/11 08:28:26;;;;;;;;;;;;;;;;;;4985094;28;19930;-78
2021/09/11 08:30:53;;;;;;;;;;;;;;;;;;4981163;28;19933;-82
2021/09/11 08:33:20;;;;;;;;;;;;;;;;;;4982454;28;19972;-82
2021/09/11 08:35:47;;;;;;;;;;;;;;;;;;4983110;28;19934;-81
2021/09/11 08:38:14;;;;;;;;;;;;;;;;;;4984113;28;19926;-80
2021/09/11 08:40:41;;;;;;;;;;;;;;;;;;4985388;28;19933;-79
2021/09/11 08:43:08;;;;;;;;;;;;;;;;;;4987026;28;19957;-80
2021/09/11 08:45:35;;;;;;;;;;;;;;;;;;4982163;28;19945;-80
2021/09/11 08:48:03;;;;;;;;;;;;;;;;;;4983838;28;19933;-79
2021/09/11 08:50:30;;;;;;;;;;;;;;;;;;4981353;28;19929;-80
2021/09/11 08:52:57;;;;;;;;;;;;;;;;;;4982821;28;19969;-79
2021/09/11 08:55:24;;;;;;;;;;;;;;;;;;4982137;28;19936;-80
2021/09/11 08:57:51;;;;;;;;;;;;;;;;;;4990563;28;20021;-80
2021/09/11 09:00:18;;;;;;;;;;;;;;;;;;4979965;28;19933;-81
2021/09/11 09:02:45;;;;;;;;;;;;;;;;;;4984524;28;19933;-79
2021/09/11 09:05:12;;;;;;;;;;;;;;;;;;4980442;28;19943;-80
2021/09/11 09:07:39;;;;;;;;;;;;;;;;;;4985540;28;20410;-80
2021/09/11 09:10:06;;;;;;;;;;;;;;;;;;4984015;28;20023;-79
2021/09/11 09:12:33;;;;;;;;;;;;;;;;;;4984718;28;20236;-78
2021/09/11 09:15:00;;;;;;;;;;;;;;;;;;4984219;28;20108;-77
2021/09/11 09:17:27;;;;;;;;;;;;;;;;;;4968320;28;20462;-78
2021/09/11 09:19:54;;;;;;;;;;;;;;;;;;4980221;28;19925;-79
2021/09/11 09:22:22;;;;;;;;;;;;;;;;;;4981161;28;19965;-78
2021/09/11 09:24:48;;;;;;;;;;;;;;;;;;4988183;28;19980;-78
2021/09/11 09:27:15;;;;;;;;;;;;;;;;;;4982020;28;19936;-79
2021/09/11 09:29:44;;;;;;;;;;;;;;;;;;4983512;28;22489;-79
2021/09/11 09:32:12;;;;;;;;;;;;;;;;;;4982962;28;19934;-78
2021/09/11 09:34:39;;;;;;;;;;;;;;;;;;5002908;28;20019;-80
2021/09/11 09:37:06;;;;;;;;;;;;;;;;;;4981941;28;20429;-80
2021/09/11 09:39:33;;;;;;;;;;;;;;;;;;4982426;28;19925;-79
2021/09/11 09:42:00;;;;;;;;;;;;;;;;;;4990064;28;19930;-78
2021/09/11 09:44:26;;;;;;;;;;;;;;;;;;4982802;28;19940;-79
2021/09/11 09:46:53;;;;;;;;;;;;;;;;;;4981118;28;19936;-81
2021/09/11 09:49:20;;;;;;;;;;;;;;;;;;4997577;28;19988;-79
2021/09/11 09:51:47;;;;;;;;;;;;;;;;;;4997047;28;19934;-79
2021/09/11 09:54:14;;;;;;;;;;;;;;;;;;4998051;28;19932;-79
2021/09/11 09:56:41;;;;;;;;;;;;;;;;;;4993355;28;20060;-76
2021/09/11 09:59:08;;;;;;;;;;;;;;;;;;4999365;28;20005;-78
2021/09/11 10:01:35;;;;;;;;;;;;;;;;;;4992237;28;19944;-77
2021/09/11 10:04:02;;;;;;;;;;;;;;;;;;5000986;28;20103;-78
2021/09/11 10:06:29;;;;;;;;;;;;;;;;;;5006914;28;19936;-79
2021/09/11 10:08:56;;;;;;;;;;;;;;;;;;4996435;28;19926;-78
2021/09/11 10:11:23;;;;;;;;;;;;;;;;;;4994842;28;19926;-79
2021/09/11 10:13:50;;;;;;;;;;;;;;;;;;4995226;28;19929;-76
2021/09/11 10:16:17;;;;;;;;;;;;;;;;;;5006261;28;19947;-77
2021/09/11 10:18:44;;;;;;;;;;;;;;;;;;4997506;28;20367;-77
2021/09/11 10:21:11;;;;;;;;;;;;;;;;;;5002061;28;19934;-80
2021/09/11 10:23:38;;;;;;;;;;;;;;;;;;5003695;28;19931;-79
2021/09/11 10:26:05;;;;;;;;;;;;;;;;;;5005697;28;19932;-78
2021/09/11 10:28:32;;;;;;;;;;;;;;;;;;4997916;28;19925;-79
2021/09/11 10:30:59;;;;;;;;;;;;;;;;;;5007898;28;19926;-79
2021/09/11 10:33:26;;;;;;;;;;;;;;;;;;5003618;28;20008;-78
2021/09/11 10:35:53;;;;;;;;;;;;;;;;;;4995140;28;19926;-78
2021/09/11 10:38:20;;;;;;;;;;;;;;;;;;4995578;28;19932;-78
2021/09/11 10:40:47;;;;;;;;;;;;;;;;;;4993980;28;20249;-77
2021/09/11 10:43:13;;;;;;;;;;;;;;;;;;4994817;28;19947;-78
2021/09/11 10:45:40;;;;;;;;;;;;;;;;;;4992574;28;20379;-78
2021/09/11 10:48:07;;;;;;;;;;;;;;;;;;4992409;28;19934;-78
2021/09/11 10:50:34;;;;;;;;;;;;;;;;;;4996366;28;19925;-79
2021/09/11 10:53:01;;;;;;;;;;;;;;;;;;5000499;28;19932;-78
2021/09/11 10:55:28;;;;;;;;;;;;;;;;;;5002003;28;20128;-78
2021/09/11 10:57:55;;;;;;;;;;;;;;;;;;4993198;28;19925;-78
2021/09/11 11:00:22;;;;;;;;;;;;;;;;;;4980159;28;19933;-78
2021/09/11 11:02:49;;;;;;;;;;;;;;;;;;4983496;28;20389;-78
2021/09/11 11:05:20;;;;;;;;;;;;;;;;;;4984799;28;19976;-78
2021/09/11 11:07:48;;;;;;;;;;;;;;;;;;4987576;28;20404;-78
2021/09/11 11:10:17;;;;;;;;;;;;;;;;;;4985536;28;19929;-78
2021/09/11 11:12:45;;;;;;;;;;;;;;;;;;4990475;28;19925;-78
2021/09/11 11:15:12;;;;;;;;;;;;;;;;;;4984274;28;19929;-78
2021/09/11 11:17:39;;;;;;;;;;;;;;;;;;4986815;28;19930;-78
2021/09/11 11:20:06;;;;;;;;;;;;;;;;;;4986101;28;22440;-78
2021/09/11 11:22:34;;;;;;;;;;;;;;;;;;4990673;28;19925;-77
2021/09/11 11:25:01;;;;;;;;;;;;;;;;;;4987088;28;20016;-78
2021/09/11 11:27:28;;;;;;;;;;;;;;;;;;4984637;28;19930;-77
2021/09/11 11:29:55;;;;;;;;;;;;;;;;;;4986201;28;19939;-76
2021/09/11 11:32:22;;;;;;;;;;;;;;;;;;4984929;28;19934;-77
2021/09/11 11:34:50;;;;;;;;;;;;;;;;;;4983751;28;20451;-77
2021/09/11 11:37:17;;;;;;;;;;;;;;;;;;4982909;28;20552;-76
2021/09/11 11:39:45;;;;;;;;;;;22.10;99.90;;;;;;4986251;28;20864;-76
2021/09/11 11:42:20;;;;;;;;;;;22.10;99.90;;;;;;4985301;28;19933;-77
2021/09/11 11:44:47;;;;;;;;;;;22.00;99.90;;;;;;4985362;28;19930;-77
2021/09/11 11:47:22;;;;;;;;;;;22.00;99.90;;;;;;4984395;28;19945;-77
2021/09/11 11:49:49;;;;;;;;;;;;;;;;;;4983860;28;19938;-77
2021/09/11 11:52:16;;;;;;;;;;;22.20;99.90;;;;;;4989000;28;19934;-77
2021/09/11 11:54:45;;;;;;;;;;;22.00;99.90;;;;;;4984894;28;20381;-77
2021/09/11 11:57:12;;;;;;;;;;;;;;;;;;4984405;28;19933;-77
2021/09/11 11:59:39;;;;;;;;;;;;;;;;;;4986640;28;20661;-77
2021/09/11 12:02:06;;;;;;;;;;;;;;;;;;4985480;28;19929;-77
2021/09/11 12:04:33;;;;;;;;;;;;;;;;;;4986258;28;21596;-77
2021/09/11 12:07:03;;;;;;;;;;;;;;;;;;4985005;28;19933;-78
2021/09/11 12:09:30;;;;;;;;;;;;;;;;;;4991402;28;19934;-79
2021/09/11 12:11:57;;;;;;;;;;;;;;;;;;4984107;28;19925;-77
2021/09/11 12:14:24;;;;;;;;;;;;;;;;;;4983036;28;19940;-77
2021/09/11 12:16:51;;;;;;;;;;;;;;;;;;4984833;28;19929;-77
2021/09/11 12:19:19;;;;;;;;;;;;;;;;;;4984224;28;19934;-77
2021/09/11 12:21:46;;;;;;;;;;;;;;;;;;4983348;28;20010;-76
2021/09/11 12:24:12;;;;;;;;;;;;;;;;;;4985960;28;20420;-76
2021/09/11 12:26:40;;;;;;;;;;;;;;;;;;4984183;28;19933;-76
2021/09/11 12:29:07;;;;;;;;;;;;;;;;;;4983971;28;20073;-76
2021/09/11 12:31:39;;;;;;;;;;;;;;;;;;4985343;28;20312;-75
2021/09/11 12:34:14;;;;;;;;;;;21.00;99.90;;;;;;4990084;28;20310;-77
2021/09/11 12:36:42;;;;;;;;;;;21.10;99.90;;;;;;4987560;28;19936;-77
2021/09/11 12:39:23;;;;;;;;;;;21.40;99.90;;;;;;4982974;28;19933;-77
2021/09/11 12:41:51;;;;;;;;;;;21.70;99.90;;;;;;4983929;28;20373;-77
2021/09/11 12:44:17;;;;;;;;;;;21.70;99.90;;;;;;4985189;28;20515;-77
2021/09/11 12:46:48;;;;;;;;;;;21.70;99.90;;;;;;4983074;28;19933;-76
2021/09/11 12:49:16;;;;;;;;;;;21.80;99.90;;;;;;4986473;28;19944;-77
2021/09/11 12:51:45;;;;;;;;;;;21.80;99.90;;;;;;4986469;28;19933;-77
2021/09/11 12:54:12;;;;;;;;;;;21.90;99.90;;;;;;4984026;28;20063;-78
2021/09/11 12:56:39;;;;;;;;;;;21.70;99.90;;;;;;4982171;28;20383;-77
2021/09/11 12:59:07;;;;;;;;;;;21.60;99.90;;;;;;4983706;28;21052;-76
2021/09/11 13:01:36;;;;;;;;;;;21.50;99.90;;;;;;4983031;28;22499;-77
2021/09/11 13:04:03;;;;;;;;;;;21.50;99.90;;;;;;4985596;28;20040;-77
2021/09/11 13:06:31;;;;;;;;;;;21.50;99.90;;;;;;4980845;28;19941;-78
2021/09/11 13:08:58;;;;;;;;;;;21.40;99.90;;;;;;4987220;28;20266;-78
2021/09/11 13:11:25;;;;;;;;;;;21.30;99.90;;;;;;4982486;28;20330;-77
2021/09/11 13:13:52;;;;;;;;;;;21.40;99.90;;;;;;4989896;28;19930;-77
2021/09/11 13:16:19;;;;;;;;;;;21.30;99.90;;;;;;4987943;28;19930;-76
2021/09/11 13:18:47;;;;;;;;;;;21.20;99.90;;;;;;4984618;28;19963;-78
2021/09/11 13:21:14;;;;;;;;;;;21.30;99.90;;;;;;4985542;28;19932;-78
2021/09/11 13:23:43;;;;;;;;;;;21.40;99.90;;;;;;4982304;28;20349;-79
2021/09/11 13:26:10;;;;;;;;;;;21.50;99.90;;;;;;4988931;28;19931;-77
2021/09/11 13:28:37;;;;;;;;;;;;;;;;;;4983279;28;19925;-77
2021/09/11 13:31:04;;;;;;;;;;;21.60;99.90;;;;;;4983155;28;19969;-77
2021/09/11 13:33:31;;;;;;;;;;;21.70;99.90;;;;;;4985938;28;19933;-77
2021/09/11 13:35:58;;;;;;;;;;;21.60;99.90;;;;;;4984129;28;19926;-77
2021/09/11 13:38:25;;;;;;;;;;;21.60;99.90;;;;;;4983945;28;20411;-77
2021/09/11 13:40:53;;;;;;;;;;;21.50;99.90;;;;;;4983196;28;19932;-76
2021/09/11 13:43:20;;;;;;;;;;;21.60;99.90;;;;;;4994888;28;19932;-77
2021/09/11 13:45:46;;;;;;;;;;;21.50;99.90;;;;;;4995858;28;19964;-77
2021/09/11 13:48:13;;;;;;;;;;;21.40;99.90;;;;;;4984757;28;19930;-78
2021/09/11 13:50:40;;;;;;;;;;;21.20;99.90;;;;;;4983062;28;19936;-77
2021/09/11 13:53:06;;;;;;;;;;;20.70;99.90;;;;;;4984515;28;20016;-77
2021/09/11 13:55:33;;;;;;;;;;;20.60;99.90;;;;;;4983024;28;19955;-77
2021/09/11 13:58:02;;;;;;;;;;;20.50;99.90;;;;;;4983934;28;19932;-77
2021/09/11 14:00:29;;;;;;;;;;;20.40;99.90;;;;;;4982505;28;20039;-76
2021/09/11 14:02:57;;;;;;;;;;;20.40;99.90;;;;;;4986116;28;19933;-77
2021/09/11 14:05:23;;;;;;;;;;;20.40;99.90;;;;;;4982237;28;19933;-77
2021/09/11 14:07:50;;;;;;;;;;;20.40;99.90;;;;;;4986032;28;19947;-77
2021/09/11 14:10:17;;;;;;;;;;;20.40;99.90;;;;;;4982544;28;19952;-77
2021/09/11 14:12:44;;;;;;;;;;;20.20;99.90;;;;;;4983093;28;20024;-76
2021/09/11 14:15:12;;;;;;;;;;;20.20;99.90;;;;;;4982270;28;19940;-77
2021/09/11 14:17:40;;;;;;;;;;;20.20;99.90;;;;;;4980495;28;20690;-77
2021/09/11 14:20:07;;;;;;;;;;;20.20;99.90;;;;;;4989471;28;19934;-76
2021/09/11 14:22:34;;;;;;;;;;;20.30;99.90;;;;;;4981778;28;19930;-77
2021/09/11 14:25:00;;;;;;;;;;;20.40;99.90;;;;;;4981889;28;19932;-77
2021/09/11 14:27:27;;;;;;;;;;;20.40;99.90;;;;;;4980640;28;19945;-76
2021/09/11 14:29:55;;;;;;;;;;;20.50;99.90;;;;;;4981711;28;19930;-77
2021/09/11 14:32:22;;;;;;;;;;;;;;;;;;4980768;28;19929;-76
2021/09/11 14:34:50;;;;;;;;;;;20.60;99.90;;;;;;4983225;28;20210;-77
2021/09/11 14:37:16;;;;;;;;;;;20.60;99.90;;;;;;4983860;28;19956;-77
2021/09/11 14:39:43;;;;;;;;;;;20.60;99.90;;;;;;4986522;28;19937;-77
2021/09/11 14:42:10;;;;;;;;;;;20.70;99.90;;;;;;4985891;28;19933;-77
2021/09/11 14:44:36;;;;;;;;;;;20.80;99.90;;;;;;4987870;28;20023;-78
2021/09/11 14:47:03;;;;;;;;;;;20.90;99.90;;;;;;4985373;28;19995;-78
2021/09/11 14:49:30;;;;;;;;;;;20.80;99.90;;;;;;4988301;28;19933;-76
2021/09/11 14:51:57;;;;;;;;;;;;;;;;;;4986728;28;19933;-77
2021/09/11 14:54:25;;;;;;;;;;;20.70;99.90;;;;;;4992718;28;19968;-77
2021/09/11 14:56:52;;;;;;;;;;;20.70;99.90;;;;;;5012841;28;19933;-77
2021/09/11 14:59:19;;;;;;;;;;;;;;;;;;4997903;28;19932;-77
2021/09/11 15:01:46;;;;;;;;;;;20.70;99.90;;;;;;4993208;28;19926;-77
2021/09/11 15:04:12;;;;;;;;;;;20.70;99.90;;;;;;4993250;28;20361;-77
2021/09/11 15:06:39;;;;;;;;;;;20.70;99.90;;;;;;4996145;28;20289;-77
2021/09/11 15:09:06;;;;;;;;;;;20.70;99.90;;;;;;4999719;28;19929;-77
2021/09/11 15:11:34;;;;;;;;;;;20.80;99.90;;;;;;4989459;28;20080;-77
2021/09/11 15:14:01;;;;;;;;;;;20.80;99.90;;;;;;4991774;28;19933;-77
2021/09/11 15:16:29;;;;;;;;;;;20.80;99.90;;;;;;5002718;28;20048;-76
2021/09/11 15:18:56;;;;;;;;;;;20.80;99.90;;;;;;5001811;28;19995;-77
2021/09/11 15:21:23;;;;;;;;;;;20.80;99.90;;;;;;5003052;28;20300;-77
2021/09/11 15:23:49;;;;;;;;;;;20.70;99.90;;;;;;4994124;28;19940;-77
2021/09/11 15:26:16;;;;;;;;;;;20.80;99.90;;;;;;4994924;28;20009;-78
2021/09/11 15:28:44;;;;;;;;;;;20.90;99.90;;;;;;5002570;28;20016;-78
2021/09/11 15:31:11;;;;;;;;;;;21.00;99.90;;;;;;4989251;28;20339;-78
2021/09/11 15:33:38;;;;;;;;;;;21.00;99.90;;;;;;4985575;28;20015;-78
2021/09/11 15:36:05;;;;;;;;;;;21.10;99.90;;;;;;4984963;28;20029;-78
2021/09/11 15:38:32;;;;;;;;;;;21.10;99.90;;;;;;4986203;28;20365;-78
2021/09/11 15:41:00;;;;;;;;;;;21.10;99.90;;;;;;4984554;28;20017;-78
2021/09/11 15:43:26;;;;;;;;;;;21.10;99.90;;;;;;4984107;28;19936;-78
2021/09/11 15:45:55;;;;;;;;;;;21.20;99.90;;;;;;4984221;28;19943;-78
2021/09/11 15:48:22;;;;;;;;;;;;;;;;;;4988222;28;19936;-78
2021/09/11 15:50:49;;;;;;;;;;;21.10;99.90;;;;;;4984883;28;19936;-78
2021/09/11 15:53:16;;;;;;;;;;;;;;;;;;4985172;28;19940;-77
2021/09/11 15:55:43;;;;;;;;;;;20.90;99.90;;;;;;4983285;28;20050;-78
2021/09/11 15:58:09;;;;;;;;;;;20.80;99.90;;;;;;4984721;28;19940;-78
2021/09/11 16:00:36;;;;;;;;;;;20.70;99.90;;;;;;4984085;28;19936;-78
2021/09/11 16:03:04;;;;;;;;;;;20.70;99.90;;;;;;4985275;28;20392;-78
2021/09/11 16:05:33;;;;;;;;;;;;;;;;;;4982785;28;20360;-78
2021/09/11 16:08:00;;;;;;;;;;;;;;;;;;4983884;28;19930;-79